createdAt,value
2019-02-11T00:00:50.867Z,1.85
2019-02-11T00:03:19.680Z,1.72
2019-02-11T00:05:48.557Z,2.10
2019-02-11T00:08:17.365Z,1.80
2019-02-11T00:10:46.492Z,1.75
2019-02-11T00:13:15.340Z,1.90
2019-02-11T00:15:44.126Z,2.00
2019-02-11T00:18:12.967Z,2.00
2019-02-11T00:20:41.820Z,1.90
2019-02-11T00:23:10.920Z,2.40
2019-02-11T00:25:39.776Z,2.30
2019-02-11T00:28:08.635Z,2.20
2019-02-11T00:30:38.173Z,2.42
2019-02-11T00:33:07.089Z,2.30
2019-02-11T00:35:36.281Z,2.37
2019-02-11T00:38:05.210Z,2.40
2019-02-11T00:40:34.013Z,2.60
2019-02-11T00:43:03.065Z,2.20
2019-02-11T00:45:32.315Z,2.70
2019-02-11T00:48:01.393Z,2.47
2019-02-11T00:50:30.261Z,2.45
2019-02-11T00:52:59.686Z,2.27
2019-02-11T00:55:29.610Z,2.60
2019-02-11T00:57:59.218Z,2.40
2019-02-11T01:00:28.131Z,2.58
2019-02-11T01:02:57.525Z,2.50
2019-02-11T01:05:26.891Z,2.90
2019-02-11T01:07:55.673Z,2.70
2019-02-11T01:10:24.760Z,2.70
2019-02-11T01:12:53.691Z,2.60
2019-02-11T01:15:23.078Z,2.70
2019-02-11T01:17:51.881Z,2.87
2019-02-11T01:20:20.753Z,3.02
2019-02-11T01:22:50.060Z,2.55
2019-02-11T01:25:18.813Z,2.95
2019-02-11T01:27:47.652Z,2.60
2019-02-11T01:30:16.522Z,2.80
2019-02-11T01:32:46.006Z,2.60
2019-02-11T01:35:14.788Z,2.90
2019-02-11T01:37:44.216Z,2.75
2019-02-11T01:40:13.159Z,2.77
2019-02-11T01:42:42.501Z,2.83
2019-02-11T01:45:12.108Z,2.77
2019-02-11T01:47:41.617Z,2.72
2019-02-11T01:50:12.474Z,2.67
2019-02-11T01:52:41.645Z,2.52
2019-02-11T01:55:10.857Z,2.60
2019-02-11T01:57:40.342Z,2.67
2019-02-11T02:00:12.365Z,2.90
2019-02-11T02:02:42.019Z,2.90
2019-02-11T02:05:10.989Z,2.90
2019-02-11T02:07:39.955Z,2.90
2019-02-11T02:10:11.197Z,2.80
2019-02-11T02:12:40.052Z,2.80
2019-02-11T02:15:09.667Z,2.92
2019-02-11T02:17:38.827Z,3.10
2019-02-11T02:20:09.090Z,2.90
2019-02-11T02:22:38.141Z,2.72
2019-02-11T02:25:07.358Z,2.60
2019-02-11T02:27:36.521Z,3.15
2019-02-11T02:30:06.618Z,2.70
2019-02-11T02:32:35.756Z,2.40
2019-02-11T02:35:04.793Z,2.22
2019-02-11T02:37:33.745Z,2.40
2019-02-11T02:40:02.547Z,2.87
2019-02-11T02:42:31.335Z,2.50
2019-02-11T02:45:00.272Z,2.27
2019-02-11T02:47:29.056Z,2.45
2019-02-11T02:49:57.872Z,2.30
2019-02-11T02:52:26.669Z,2.40
2019-02-11T02:54:55.818Z,2.50
2019-02-11T02:57:24.986Z,2.58
2019-02-11T02:59:53.888Z,2.67
2019-02-11T03:02:22.813Z,2.80
2019-02-11T03:04:51.592Z,2.65
2019-02-11T03:07:20.441Z,3.10
2019-02-11T03:09:49.516Z,2.92
2019-02-11T03:12:18.440Z,2.95
2019-02-11T03:14:47.348Z,2.70
2019-02-11T03:17:16.115Z,2.87
2019-02-11T03:19:45.488Z,2.70
2019-02-11T03:22:14.284Z,2.60
2019-02-11T03:24:44.016Z,2.70
2019-02-11T03:27:12.808Z,2.80
2019-02-11T03:29:42.304Z,3.10
2019-02-11T03:32:11.093Z,3.00
2019-02-11T03:34:40.190Z,2.80
2019-02-11T03:37:09.054Z,2.43
2019-02-11T03:39:37.840Z,2.30
2019-02-11T03:42:07.141Z,2.20
2019-02-11T03:44:35.914Z,2.25
2019-02-11T03:47:04.800Z,2.33
2019-02-11T03:49:33.838Z,2.10
2019-02-11T03:52:02.688Z,1.80
2019-02-11T03:54:32.321Z,1.70
2019-02-11T03:57:01.199Z,2.00
2019-02-11T03:59:30.050Z,1.80
2019-02-11T04:01:59.000Z,1.60
2019-02-11T04:04:27.786Z,1.57
2019-02-11T04:06:56.997Z,1.50
2019-02-11T04:09:26.062Z,1.50
2019-02-11T04:11:55.156Z,1.50
2019-02-11T04:14:25.472Z,2.10
2019-02-11T04:16:54.658Z,1.80
2019-02-11T04:19:23.672Z,1.45
2019-02-11T04:22:06.424Z,1.57
2019-02-11T04:24:35.219Z,1.60
2019-02-11T04:27:04.153Z,1.70
2019-02-11T04:29:32.977Z,1.70
2019-02-11T04:32:02.220Z,2.00
2019-02-11T04:34:31.748Z,1.82
2019-02-11T04:37:00.586Z,1.90
2019-02-11T04:39:29.386Z,1.98
2019-02-11T04:41:58.546Z,2.22
2019-02-11T04:44:33.765Z,2.20
2019-02-11T04:46:58.146Z,2.33
2019-02-11T04:49:27.323Z,2.30
2019-02-11T04:51:56.152Z,2.20
2019-02-11T04:54:25.488Z,2.30
2019-02-11T04:56:54.299Z,2.20
2019-02-11T04:59:23.399Z,2.30
2019-02-11T05:01:52.912Z,2.30
2019-02-11T05:04:22.815Z,2.10
2019-02-11T05:06:53.025Z,1.90
2019-02-11T05:09:22.135Z,2.67
2019-02-11T05:11:51.590Z,2.50
2019-02-11T05:14:20.654Z,2.50
2019-02-11T05:16:49.479Z,2.70
2019-02-11T05:19:18.261Z,2.42
2019-02-11T05:21:47.117Z,2.70
2019-02-11T05:24:16.199Z,2.55
2019-02-11T05:26:45.120Z,2.70
2019-02-11T05:29:13.979Z,2.77
2019-02-11T05:31:42.764Z,2.80
2019-02-11T05:34:11.936Z,2.60
2019-02-11T05:36:41.297Z,2.80
2019-02-11T05:39:14.525Z,2.90
2019-02-11T05:41:43.312Z,3.00
2019-02-11T05:44:12.537Z,2.77
2019-02-11T05:46:41.968Z,2.90
2019-02-11T05:49:11.450Z,3.27
2019-02-11T05:51:40.845Z,3.00
2019-02-11T05:54:09.781Z,3.37
2019-02-11T05:56:39.553Z,3.67
2019-02-11T05:59:08.689Z,4.10
2019-02-11T06:01:37.546Z,4.00
2019-02-11T06:04:06.393Z,3.90
2019-02-11T06:06:35.440Z,3.87
2019-02-11T06:09:06.037Z,3.83
2019-02-11T06:11:34.973Z,3.67
2019-02-11T06:14:03.947Z,3.97
2019-02-11T06:16:33.237Z,4.00
2019-02-11T06:19:03.044Z,3.75
2019-02-11T06:21:32.000Z,3.98
2019-02-11T06:24:00.793Z,4.30
2019-02-11T06:26:29.946Z,4.40
2019-02-11T06:28:59.432Z,4.67
2019-02-11T06:31:28.220Z,5.00
2019-02-11T06:33:57.750Z,4.60
2019-02-11T06:36:26.603Z,5.33
2019-02-11T06:38:55.684Z,5.50
2019-02-11T06:41:25.019Z,5.25
2019-02-11T06:43:53.805Z,5.62
2019-02-11T06:46:22.631Z,5.60
2019-02-11T06:48:51.412Z,5.65
2019-02-11T06:51:20.267Z,5.97
2019-02-11T06:53:49.063Z,5.80
2019-02-11T06:56:17.988Z,6.10
2019-02-11T06:58:46.935Z,6.30
2019-02-11T07:01:16.255Z,6.27
2019-02-11T07:03:45.219Z,6.12
2019-02-11T07:06:14.044Z,6.42
2019-02-11T07:08:42.988Z,6.62
2019-02-11T07:11:12.121Z,6.20
2019-02-11T07:13:41.039Z,6.60
2019-02-11T07:16:10.247Z,6.15
2019-02-11T07:18:40.888Z,6.08
2019-02-11T07:21:11.448Z,6.20
2019-02-11T07:23:42.058Z,6.17
2019-02-11T07:26:12.598Z,5.87
2019-02-11T07:28:41.916Z,5.43
2019-02-11T07:31:11.157Z,5.97
2019-02-11T07:33:41.257Z,5.50
2019-02-11T07:36:10.064Z,5.60
2019-02-11T07:38:38.909Z,5.67
2019-02-11T07:41:07.722Z,5.50
2019-02-11T07:43:49.907Z,5.60
2019-02-11T07:46:25.976Z,6.00
2019-02-11T07:49:01.719Z,5.45
2019-02-11T07:51:30.935Z,5.92
2019-02-11T07:54:00.190Z,5.47
2019-02-11T07:56:29.151Z,5.42
2019-02-11T07:58:58.125Z,5.70
2019-02-11T08:01:27.072Z,5.53
2019-02-11T08:03:56.426Z,5.55
2019-02-11T08:06:25.241Z,5.10
2019-02-11T08:08:54.253Z,5.45
2019-02-11T08:11:23.339Z,5.25
2019-02-11T08:13:52.285Z,5.50
2019-02-11T08:16:21.437Z,5.47
2019-02-11T08:18:51.277Z,5.12
2019-02-11T08:21:20.414Z,5.17
2019-02-11T08:23:49.400Z,5.50
2019-02-11T08:26:18.346Z,5.10
2019-02-11T08:28:47.225Z,5.67
2019-02-11T08:31:16.721Z,5.10
2019-02-11T08:33:45.675Z,5.30
2019-02-11T08:36:14.884Z,5.40
2019-02-11T08:38:43.656Z,5.90
2019-02-11T08:41:12.472Z,5.33
2019-02-11T08:43:41.269Z,5.45
2019-02-11T08:46:10.185Z,5.60
2019-02-11T08:48:39.086Z,5.40
2019-02-11T08:51:08.116Z,5.30
2019-02-11T08:53:36.989Z,5.27
2019-02-11T08:56:05.786Z,5.30
2019-02-11T08:58:34.674Z,4.90
2019-02-11T09:01:03.670Z,4.78
2019-02-11T09:03:32.465Z,4.45
2019-02-11T09:06:01.295Z,4.80
2019-02-11T09:08:30.373Z,4.70
2019-02-11T09:10:59.480Z,4.80
2019-02-11T09:13:28.268Z,4.83
2019-02-11T09:15:57.557Z,4.42
2019-02-11T09:18:26.378Z,4.28
2019-02-11T09:20:55.165Z,4.80
2019-02-11T09:23:24.636Z,4.87
2019-02-11T09:25:53.485Z,4.45
2019-02-11T09:28:22.313Z,4.62
2019-02-11T09:30:51.104Z,4.53
2019-02-11T09:33:19.954Z,4.50
2019-02-11T09:35:49.080Z,4.33
2019-02-11T09:38:18.580Z,4.25
2019-02-11T09:40:47.500Z,4.65
2019-02-11T09:43:16.391Z,4.28
2019-02-11T09:45:45.672Z,3.50
2019-02-11T09:48:14.755Z,3.90
2019-02-11T09:50:46.288Z,4.10
2019-02-11T09:53:15.153Z,3.72
2019-02-11T09:55:44.077Z,3.90
2019-02-11T09:58:13.636Z,4.00
2019-02-11T10:00:42.567Z,3.73
2019-02-11T10:03:11.775Z,3.80
2019-02-11T10:05:40.621Z,4.08
2019-02-11T10:08:28.756Z,3.90
2019-02-11T10:10:57.585Z,3.60
2019-02-11T10:13:26.653Z,3.23
2019-02-11T10:15:58.231Z,3.00
2019-02-11T10:18:27.592Z,2.60
2019-02-11T10:20:56.523Z,2.80
2019-02-11T10:23:25.300Z,2.87
2019-02-11T10:25:54.064Z,3.00
2019-02-11T10:28:23.256Z,3.00
2019-02-11T10:30:52.164Z,2.70
2019-02-11T10:33:21.128Z,2.85
2019-02-11T10:35:50.048Z,2.33
2019-02-11T10:38:18.899Z,2.60
2019-02-11T10:40:47.892Z,2.70
2019-02-11T10:43:16.997Z,2.70
2019-02-11T10:45:45.837Z,2.80
2019-02-11T10:48:14.613Z,2.92
2019-02-11T10:50:43.712Z,3.20
2019-02-11T10:53:13.076Z,3.15
2019-02-11T10:55:43.037Z,3.12
2019-02-11T10:58:12.791Z,3.30
2019-02-11T11:00:42.017Z,3.33
2019-02-11T11:03:11.257Z,3.15
2019-02-11T11:05:40.552Z,3.35
2019-02-11T11:08:10.125Z,3.20
2019-02-11T11:10:38.976Z,3.27
2019-02-11T11:13:08.349Z,3.20
2019-02-11T11:15:37.276Z,3.35
2019-02-11T11:18:07.941Z,3.60
2019-02-11T11:20:36.884Z,3.22
2019-02-11T11:23:06.088Z,3.70
2019-02-11T11:25:34.993Z,3.40
2019-02-11T11:28:04.043Z,3.77
2019-02-11T11:30:33.612Z,3.60
2019-02-11T11:33:02.952Z,3.47
2019-02-11T11:35:32.043Z,3.40
2019-02-11T11:38:01.163Z,3.90
2019-02-11T11:40:30.231Z,3.62
2019-02-11T11:42:59.243Z,3.30
2019-02-11T11:45:29.015Z,3.27
2019-02-11T11:47:57.912Z,3.77
2019-02-11T11:50:26.761Z,3.37
2019-02-11T11:52:55.591Z,3.70
2019-02-11T11:55:25.045Z,3.40
2019-02-11T11:57:55.197Z,3.65
2019-02-11T12:00:25.735Z,3.50
2019-02-11T12:03:02.658Z,3.40
2019-02-11T12:05:25.445Z,3.40
2019-02-11T12:07:54.439Z,3.37
2019-02-11T12:10:23.326Z,3.30
2019-02-11T12:12:52.428Z,3.40
2019-02-11T12:15:22.566Z,3.40
2019-02-11T12:17:51.603Z,3.35
2019-02-11T12:20:20.493Z,3.40
2019-02-11T12:22:49.413Z,3.40
2019-02-11T12:25:18.407Z,3.57
2019-02-11T12:27:47.522Z,3.13
2019-02-11T12:30:18.763Z,3.40
2019-02-11T12:32:47.591Z,3.30
2019-02-11T12:35:16.415Z,3.33
2019-02-11T12:37:45.267Z,3.05
2019-02-11T12:40:14.124Z,3.37
2019-02-11T12:42:43.196Z,3.45
2019-02-11T12:45:14.274Z,3.47
2019-02-11T12:47:43.067Z,3.40
2019-02-11T12:50:15.446Z,3.55
2019-02-11T12:52:44.220Z,3.30
2019-02-11T12:55:14.347Z,3.30
2019-02-11T12:57:43.282Z,3.27
2019-02-11T13:00:17.941Z,3.40
2019-02-11T13:02:47.302Z,2.97
2019-02-11T13:05:16.393Z,3.25
2019-02-11T13:07:45.488Z,3.33
2019-02-11T13:10:16.272Z,2.87
2019-02-11T13:12:45.365Z,2.80
2019-02-11T13:15:31.612Z,2.90
2019-02-11T13:17:45.732Z,2.90
2019-02-11T13:20:14.682Z,3.00
2019-02-11T13:22:43.451Z,2.77
2019-02-11T13:25:13.535Z,3.02
2019-02-11T13:27:42.823Z,3.20
2019-02-11T13:30:19.510Z,2.50
2019-02-11T13:32:48.322Z,2.60
2019-02-11T13:35:17.253Z,2.92
2019-02-11T13:37:46.134Z,3.13
2019-02-11T13:40:15.268Z,3.08
2019-02-11T13:42:44.095Z,3.00
2019-02-11T13:45:15.126Z,2.75
2019-02-11T13:47:53.634Z,2.80
2019-02-11T13:50:17.494Z,2.50
2019-02-11T13:52:46.619Z,2.50
2019-02-11T13:55:16.292Z,2.80
2019-02-11T13:57:45.693Z,2.50
2019-02-11T14:00:20.695Z,2.62
2019-02-11T14:02:51.789Z,2.90
2019-02-11T14:05:20.743Z,2.70
2019-02-11T14:07:49.566Z,3.12
2019-02-11T14:10:18.662Z,2.58
2019-02-11T14:12:48.106Z,2.70
2019-02-11T14:15:20.500Z,2.97
2019-02-11T14:17:47.797Z,2.62
2019-02-11T14:20:22.517Z,2.87
2019-02-11T14:22:53.116Z,2.72
2019-02-11T14:25:40.263Z,2.83
2019-02-11T14:27:53.223Z,2.70
2019-02-11T14:30:22.518Z,2.55
2019-02-11T14:32:52.335Z,2.70
2019-02-11T14:35:21.874Z,2.75
2019-02-11T14:37:51.246Z,2.70
2019-02-11T14:40:20.374Z,2.50
2019-02-11T14:42:49.227Z,2.65
2019-02-11T14:45:18.176Z,2.50
2019-02-11T14:47:47.350Z,2.85
2019-02-11T14:50:16.212Z,2.80
2019-02-11T14:52:45.455Z,2.62
2019-02-11T14:55:14.382Z,2.60
2019-02-11T14:57:43.298Z,2.87
2019-02-11T15:00:16.885Z,2.80
2019-02-11T15:02:45.777Z,2.67
2019-02-11T15:05:14.768Z,2.60
2019-02-11T15:07:43.662Z,2.55
2019-02-11T15:10:12.790Z,2.77
2019-02-11T15:12:41.822Z,3.02
2019-02-11T15:15:10.732Z,2.80
2019-02-11T15:17:40.158Z,2.70
2019-02-11T15:20:11.009Z,2.75
2019-02-11T15:22:40.298Z,3.10
2019-02-11T15:25:11.605Z,3.22
2019-02-11T15:27:40.428Z,2.90
2019-02-11T15:30:11.545Z,2.90
2019-02-11T15:32:41.008Z,2.83
2019-02-11T15:35:10.064Z,2.70
2019-02-11T15:37:39.034Z,3.08
2019-02-11T15:40:20.712Z,3.00
2019-02-11T15:42:50.086Z,3.00
2019-02-11T15:45:29.242Z,3.00
2019-02-11T15:48:09.477Z,3.07
2019-02-11T15:50:41.891Z,3.05
2019-02-11T15:53:11.168Z,3.10
2019-02-11T15:55:39.993Z,3.20
2019-02-11T15:58:09.160Z,3.33
2019-02-11T16:00:38.471Z,3.40
2019-02-11T16:03:07.361Z,3.50
2019-02-11T16:05:36.134Z,3.37
2019-02-11T16:08:05.302Z,3.47
2019-02-11T16:10:34.418Z,3.42
2019-02-11T16:13:03.599Z,3.65
2019-02-11T16:15:32.378Z,3.55
2019-02-11T16:18:01.155Z,3.67
2019-02-11T16:20:30.196Z,4.03
2019-02-11T16:22:58.956Z,3.70
2019-02-11T16:25:27.829Z,4.17
2019-02-11T16:27:58.070Z,4.20
2019-02-11T16:30:29.646Z,4.50
2019-02-11T16:32:58.870Z,4.03
2019-02-11T16:35:27.656Z,4.75
2019-02-11T16:37:56.696Z,4.65
2019-02-11T16:40:26.656Z,4.97
2019-02-11T16:42:55.661Z,4.80
2019-02-11T16:45:24.436Z,4.87
2019-02-11T16:47:53.815Z,4.70
2019-02-11T16:50:22.677Z,4.50
2019-02-11T16:52:51.508Z,4.78
2019-02-11T16:55:20.348Z,5.50
2019-02-11T16:57:49.192Z,5.67
2019-02-11T17:00:18.277Z,6.17
2019-02-11T17:02:47.100Z,6.10
2019-02-11T17:05:15.949Z,6.20
2019-02-11T17:07:45.004Z,5.90
2019-02-11T17:10:14.144Z,6.42
2019-02-11T17:12:43.419Z,6.28
2019-02-11T17:15:14.346Z,6.83
2019-02-11T17:17:43.187Z,6.92
2019-02-11T17:20:12.586Z,6.95
2019-02-11T17:22:41.346Z,7.15
2019-02-11T17:25:10.349Z,6.90
2019-02-11T17:27:39.323Z,7.10
2019-02-11T17:30:11.201Z,7.12
2019-02-11T17:32:40.106Z,7.03
2019-02-11T17:35:09.343Z,7.40
2019-02-11T17:37:38.095Z,7.20
2019-02-11T17:40:08.231Z,7.30
2019-02-11T17:42:37.132Z,8.10
2019-02-11T17:45:08.184Z,7.40
2019-02-11T17:47:37.309Z,7.20
2019-02-11T17:50:07.580Z,7.05
2019-02-11T17:52:36.493Z,7.10
2019-02-11T17:55:05.954Z,7.40
2019-02-11T17:57:34.792Z,7.22
2019-02-11T18:00:03.872Z,7.42
2019-02-11T18:02:33.024Z,7.92
2019-02-11T18:05:02.099Z,7.67
2019-02-11T18:07:31.425Z,7.50
2019-02-11T18:10:00.297Z,7.60
2019-02-11T18:12:29.041Z,8.03
2019-02-11T18:14:58.139Z,7.85
2019-02-11T18:17:27.163Z,7.75
2019-02-11T18:19:55.959Z,7.35
2019-02-11T18:22:24.993Z,7.53
2019-02-11T18:24:54.090Z,7.97
2019-02-11T18:27:23.190Z,7.95
2019-02-11T18:29:52.284Z,7.95
2019-02-11T18:32:21.158Z,7.70
2019-02-11T18:34:49.968Z,7.40
2019-02-11T18:37:19.268Z,7.60
2019-02-11T18:39:48.674Z,7.28
2019-02-11T18:42:17.860Z,7.40
2019-02-11T18:45:12.460Z,7.35
2019-02-11T18:47:41.908Z,8.28
2019-02-11T18:50:11.992Z,8.27
2019-02-11T18:52:40.786Z,7.90
2019-02-11T18:55:10.732Z,8.30
2019-02-11T18:57:39.655Z,8.07
2019-02-11T19:00:10.793Z,8.27
2019-02-11T19:02:53.968Z,8.50
2019-02-11T19:05:22.720Z,7.97
2019-02-11T19:07:51.499Z,7.55
2019-02-11T19:10:20.709Z,7.90
2019-02-11T19:12:49.583Z,7.60
2019-02-11T19:15:18.825Z,7.72
2019-02-11T19:17:47.862Z,7.47
2019-02-11T19:20:16.820Z,7.35
2019-02-11T19:22:45.760Z,7.65
2019-02-11T19:25:14.844Z,8.18
2019-02-11T19:27:44.767Z,8.13
2019-02-11T19:30:17.972Z,7.83
2019-02-11T19:32:49.225Z,7.75
2019-02-11T19:35:20.652Z,7.55
2019-02-11T19:37:51.250Z,7.42
2019-02-11T19:40:21.935Z,7.47
2019-02-11T19:42:53.785Z,7.72
2019-02-11T19:45:24.437Z,7.30
2019-02-11T19:47:55.397Z,7.35
2019-02-11T19:50:24.464Z,7.62
2019-02-11T19:52:54.379Z,7.60
2019-02-11T19:55:23.908Z,7.40
2019-02-11T19:57:53.422Z,7.77
2019-02-11T20:00:22.380Z,7.72
2019-02-11T20:02:51.603Z,7.85
2019-02-11T20:05:20.789Z,7.55
2019-02-11T20:07:49.624Z,7.50
2019-02-11T20:10:19.313Z,7.95
2019-02-11T20:12:48.441Z,8.00
2019-02-11T20:15:18.964Z,7.70
2019-02-11T20:17:48.152Z,7.80
2019-02-11T20:20:19.285Z,8.00
2019-02-11T20:22:48.239Z,7.78
2019-02-11T20:25:17.506Z,8.05
2019-02-11T20:27:46.378Z,7.45
2019-02-11T20:30:16.831Z,7.70
2019-02-11T20:32:45.970Z,7.65
2019-02-11T20:35:15.213Z,8.25
2019-02-11T20:37:44.003Z,8.15
2019-02-11T20:40:15.397Z,7.67
2019-02-11T20:42:44.853Z,8.40
2019-02-11T20:45:16.659Z,8.53
2019-02-11T20:47:46.780Z,8.13
2019-02-11T20:50:15.653Z,8.55
2019-02-11T20:52:44.683Z,8.53
2019-02-11T20:55:13.917Z,8.33
2019-02-11T20:57:43.210Z,9.05
2019-02-11T21:00:16.302Z,8.67
2019-02-11T21:02:45.296Z,7.83
2019-02-11T21:05:14.150Z,8.40
2019-02-11T21:07:43.591Z,7.92
2019-02-11T21:10:13.589Z,7.20
2019-02-11T21:12:42.956Z,8.13
2019-02-11T21:15:13.413Z,7.70
2019-02-11T21:17:42.417Z,7.15
2019-02-11T21:20:17.966Z,7.15
2019-02-11T21:22:46.859Z,7.47
2019-02-11T21:25:15.692Z,8.00
2019-02-11T21:27:45.756Z,7.97
2019-02-11T21:30:14.750Z,7.40
2019-02-11T21:32:43.625Z,7.20
2019-02-11T21:35:13.160Z,7.30
2019-02-11T21:37:42.280Z,7.30
2019-02-11T21:40:11.220Z,7.62
2019-02-11T21:42:40.017Z,7.95
2019-02-11T21:45:09.351Z,7.75
2019-02-11T21:47:38.527Z,7.05
2019-02-11T21:50:09.459Z,7.35
2019-02-11T21:52:38.329Z,7.83
2019-02-11T21:55:09.051Z,7.55
2019-02-11T21:57:38.183Z,8.10
2019-02-11T22:00:08.763Z,7.72
2019-02-11T22:02:37.663Z,8.20
2019-02-11T22:05:06.700Z,7.78
2019-02-11T22:07:35.575Z,7.50
2019-02-11T22:10:05.052Z,8.13
2019-02-11T22:12:34.180Z,9.07
2019-02-11T22:15:03.384Z,8.48
2019-02-11T22:17:32.198Z,8.50
2019-02-11T22:20:01.272Z,8.93
2019-02-11T22:22:30.212Z,8.78
2019-02-11T22:24:59.292Z,9.53
2019-02-11T22:27:28.146Z,9.13
2019-02-11T22:29:56.971Z,8.73
2019-02-11T22:32:26.840Z,8.68
2019-02-11T22:34:55.786Z,7.95
2019-02-11T22:37:24.545Z,8.15
2019-02-11T22:39:53.385Z,8.50
2019-02-11T22:42:22.161Z,8.25
2019-02-11T22:44:50.956Z,8.80
2019-02-11T22:47:19.892Z,8.43
2019-02-11T22:49:48.784Z,8.45
2019-02-11T22:52:17.701Z,8.05
2019-02-11T22:54:46.745Z,8.53
2019-02-11T22:57:15.856Z,8.98
2019-02-11T22:59:44.703Z,9.40
2019-02-11T23:02:13.564Z,9.60
2019-02-11T23:04:42.372Z,9.40
2019-02-11T23:07:11.176Z,9.23
2019-02-11T23:09:40.058Z,9.58
2019-02-11T23:12:08.978Z,8.45
2019-02-11T23:14:37.820Z,9.78
2019-02-11T23:17:06.732Z,9.93
2019-02-11T23:19:35.637Z,9.68
2019-02-11T23:22:04.635Z,9.73
2019-02-11T23:24:33.821Z,9.87
2019-02-11T23:27:03.463Z,9.55
2019-02-11T23:29:32.885Z,9.75
2019-02-11T23:32:01.693Z,9.65
2019-02-11T23:34:30.630Z,9.20
2019-02-11T23:36:59.719Z,9.05
2019-02-11T23:39:28.807Z,8.50
2019-02-11T23:41:57.592Z,8.60
2019-02-11T23:44:26.695Z,8.70
2019-02-11T23:46:55.927Z,9.05
2019-02-11T23:49:24.986Z,9.00
2019-02-11T23:51:53.864Z,8.95
2019-02-11T23:54:22.993Z,9.13
2019-02-11T23:56:51.795Z,9.15
2019-02-11T23:59:20.644Z,9.18
